createdAt,value
2023-03-24T00:00:12.039Z,3.50
2023-03-24T00:02:42.516Z,4.25
2023-03-24T00:05:11.894Z,3.45
2023-03-24T00:07:41.451Z,3.90
2023-03-24T00:10:12.334Z,4.50
2023-03-24T00:12:42.730Z,4.03
2023-03-24T00:15:16.220Z,4.05
2023-03-24T00:17:45.263Z,4.28
2023-03-24T00:20:17.164Z,4.60
2023-03-24T00:22:49.714Z,4.10
2023-03-24T00:25:19.661Z,3.72
2023-03-24T00:27:49.973Z,4.25
2023-03-24T00:30:22.028Z,4.10
2023-03-24T00:32:51.998Z,3.88
2023-03-24T00:35:20.900Z,3.90
2023-03-24T00:37:52.035Z,3.83
2023-03-24T00:40:22.361Z,4.78
2023-03-24T00:42:51.332Z,4.28
2023-03-24T00:45:24.086Z,4.55
2023-03-24T00:47:54.644Z,4.10
2023-03-24T00:50:27.486Z,3.80
2023-03-24T00:52:58.437Z,3.50
2023-03-24T00:55:28.927Z,3.47
2023-03-24T00:57:58.060Z,3.55
2023-03-24T01:00:28.120Z,3.92
2023-03-24T01:02:58.626Z,3.45
2023-03-24T01:05:28.891Z,3.40
2023-03-24T01:07:58.286Z,3.92
2023-03-24T01:10:27.847Z,4.15
2023-03-24T01:13:00.034Z,4.05
2023-03-24T01:15:33.433Z,4.40
2023-03-24T01:18:03.060Z,3.80
2023-03-24T01:20:33.434Z,3.55
2023-03-24T01:23:02.594Z,4.13
2023-03-24T01:25:31.593Z,4.20
2023-03-24T01:27:59.985Z,3.83
2023-03-24T01:30:31.653Z,3.78
2023-03-24T01:33:00.005Z,3.92
2023-03-24T01:35:29.559Z,3.80
2023-03-24T01:37:58.686Z,3.72
2023-03-24T01:40:30.093Z,4.03
2023-03-24T01:42:59.228Z,3.80
2023-03-24T01:45:59.091Z,3.70
2023-03-24T01:48:32.523Z,3.92
2023-03-24T01:51:06.040Z,3.40
2023-03-24T01:53:37.237Z,3.65
2023-03-24T01:56:08.071Z,3.95
2023-03-24T01:58:43.948Z,3.85
2023-03-24T02:01:40.891Z,4.80
2023-03-24T02:04:34.649Z,4.22
2023-03-24T02:07:17.039Z,3.78
2023-03-24T02:09:45.789Z,4.45
2023-03-24T02:12:14.789Z,3.70
2023-03-24T02:14:43.850Z,4.20
2023-03-24T02:17:54.810Z,3.58
2023-03-24T02:20:52.780Z,3.53
2023-03-24T02:23:59.121Z,3.90
2023-03-24T02:26:41.480Z,3.90
2023-03-24T02:29:38.882Z,3.63
2023-03-24T02:32:40.125Z,3.80
2023-03-24T02:35:46.529Z,3.75
2023-03-24T02:38:45.862Z,3.92
2023-03-24T02:41:21.937Z,3.63
2023-03-24T02:43:59.004Z,3.88
2023-03-24T02:46:32.787Z,3.92
2023-03-24T02:49:11.863Z,3.20
2023-03-24T02:51:49.870Z,3.25
2023-03-24T02:54:22.500Z,3.88
2023-03-24T02:56:58.437Z,3.10
2023-03-24T02:59:45.164Z,3.20
2023-03-24T03:02:42.704Z,3.20
2023-03-24T03:05:16.066Z,4.35
2023-03-24T03:07:47.546Z,3.05
2023-03-24T03:10:19.123Z,3.30
2023-03-24T03:12:54.229Z,3.78
2023-03-24T03:15:25.709Z,2.05
2023-03-24T03:17:59.907Z,2.95
2023-03-24T03:20:31.258Z,3.08
2023-03-24T03:23:03.856Z,3.10
2023-03-24T03:25:37.177Z,2.88
2023-03-24T03:28:08.258Z,2.63
2023-03-24T03:30:41.163Z,3.05
2023-03-24T03:33:18.286Z,2.70
2023-03-24T03:35:53.267Z,3.05
2023-03-24T03:38:27.539Z,3.00
2023-03-24T03:40:59.300Z,3.22
2023-03-24T03:43:35.084Z,2.90
2023-03-24T03:46:07.496Z,3.33
2023-03-24T03:48:39.705Z,3.50
2023-03-24T03:51:13.973Z,3.08
2023-03-24T03:53:53.789Z,3.55
2023-03-24T03:56:24.645Z,3.70
2023-03-24T03:59:25.581Z,3.00
2023-03-24T04:01:54.850Z,3.63
2023-03-24T04:05:06.967Z,3.08
2023-03-24T04:08:19.755Z,3.25
2023-03-24T04:11:22.252Z,2.95
2023-03-24T04:14:35.029Z,3.50
2023-03-24T04:17:45.440Z,3.20
2023-03-24T04:20:24.537Z,3.25
2023-03-24T04:23:09.481Z,3.10
2023-03-24T04:25:56.755Z,3.00
2023-03-24T04:28:34.166Z,2.70
2023-03-24T04:31:08.478Z,3.40
2023-03-24T04:33:45.715Z,3.83
2023-03-24T04:36:22.394Z,3.70
2023-03-24T04:39:32.204Z,3.40
2023-03-24T04:42:07.451Z,3.72
2023-03-24T04:44:35.924Z,3.13
2023-03-24T04:47:28.196Z,3.25
2023-03-24T04:50:15.423Z,3.10
2023-03-24T04:52:44.187Z,3.45
2023-03-24T04:55:35.827Z,3.97
2023-03-24T04:58:04.022Z,4.25
2023-03-24T05:00:32.551Z,3.15
2023-03-24T05:03:02.090Z,4.07
2023-03-24T05:05:30.396Z,3.33
2023-03-24T05:07:58.748Z,3.75
2023-03-24T05:10:27.116Z,3.38
2023-03-24T05:12:57.325Z,3.03
2023-03-24T05:15:28.538Z,3.70
2023-03-24T05:18:20.333Z,4.28
2023-03-24T05:20:48.834Z,3.42
2023-03-24T05:23:21.198Z,3.95
2023-03-24T05:25:50.926Z,3.42
2023-03-24T05:28:20.834Z,3.72
2023-03-24T05:30:49.392Z,3.65
2023-03-24T05:33:44.303Z,3.88
2023-03-24T05:36:16.776Z,3.20
2023-03-24T05:38:50.785Z,3.40
2023-03-24T05:41:19.137Z,4.10
2023-03-24T05:43:47.261Z,4.15
2023-03-24T05:46:17.398Z,4.20
2023-03-24T05:48:48.439Z,5.53
2023-03-24T05:51:18.544Z,4.40
2023-03-24T05:53:52.175Z,5.78
2023-03-24T05:56:33.755Z,5.07
2023-03-24T05:59:17.241Z,5.30
2023-03-24T06:02:08.621Z,5.85
2023-03-24T06:04:51.779Z,5.60
2023-03-24T06:07:27.044Z,5.10
2023-03-24T06:09:58.287Z,4.88
2023-03-24T06:12:27.543Z,5.90
2023-03-24T06:15:02.167Z,4.60
2023-03-24T06:17:31.839Z,4.38
2023-03-24T06:20:14.930Z,4.00
2023-03-24T06:22:48.636Z,4.70
2023-03-24T06:25:21.644Z,4.90
2023-03-24T06:28:14.098Z,4.90
2023-03-24T06:30:45.023Z,4.70
2023-03-24T06:33:14.720Z,3.60
2023-03-24T06:35:46.791Z,4.50
2023-03-24T06:38:17.701Z,3.75
2023-03-24T06:40:46.757Z,4.60
2023-03-24T06:43:15.026Z,4.10
2023-03-24T06:45:46.258Z,4.78
2023-03-24T06:48:20.041Z,4.30
2023-03-24T06:50:50.553Z,5.55
2023-03-24T06:53:19.016Z,4.47
2023-03-24T06:55:47.710Z,4.50
2023-03-24T06:58:16.042Z,4.85
2023-03-24T07:00:55.538Z,5.05
2023-03-24T07:03:47.021Z,4.30
2023-03-24T07:06:19.610Z,4.93
2023-03-24T07:08:52.673Z,4.80
2023-03-24T07:11:23.459Z,4.50
2023-03-24T07:13:54.933Z,4.57
2023-03-24T07:16:23.524Z,3.72
2023-03-24T07:19:01.249Z,4.45
2023-03-24T07:21:33.287Z,4.15
2023-03-24T07:24:02.291Z,4.50
2023-03-24T07:26:46.922Z,4.47
2023-03-24T07:29:24.848Z,5.10
2023-03-24T07:32:08.052Z,4.18
2023-03-24T07:34:39.498Z,4.50
2023-03-24T07:37:08.931Z,4.97
2023-03-24T07:39:37.321Z,5.25
2023-03-24T07:42:06.338Z,4.05
2023-03-24T07:44:46.476Z,4.68
2023-03-24T07:47:14.679Z,4.57
2023-03-24T07:49:43.057Z,4.93
2023-03-24T07:52:14.375Z,4.63
2023-03-24T07:54:45.337Z,4.55
2023-03-24T07:57:27.376Z,4.35
2023-03-24T07:59:55.771Z,4.22
2023-03-24T08:02:44.027Z,4.80
2023-03-24T08:05:30.911Z,3.85
2023-03-24T08:08:18.226Z,4.00
2023-03-24T08:10:47.356Z,4.60
2023-03-24T08:13:16.010Z,3.67
2023-03-24T08:15:44.196Z,3.58
2023-03-24T08:18:12.583Z,3.50
2023-03-24T08:20:40.874Z,2.80
2023-03-24T08:23:09.864Z,2.92
2023-03-24T08:25:39.340Z,2.72
2023-03-24T08:28:08.634Z,3.78
2023-03-24T08:30:37.097Z,2.95
2023-03-24T08:33:06.343Z,3.72
2023-03-24T08:35:38.890Z,3.13
2023-03-24T08:38:08.824Z,2.90
2023-03-24T08:40:40.866Z,3.53
2023-03-24T08:43:11.096Z,2.45
2023-03-24T08:45:39.628Z,2.97
2023-03-24T08:48:09.568Z,2.60
2023-03-24T08:50:40.105Z,2.90
2023-03-24T08:53:09.369Z,2.58
2023-03-24T08:55:41.944Z,2.35
2023-03-24T08:58:12.798Z,2.58
2023-03-24T09:00:41.764Z,2.63
2023-03-24T09:03:13.717Z,2.10
2023-03-24T09:05:44.791Z,2.38
2023-03-24T09:08:14.048Z,2.58
2023-03-24T09:10:47.098Z,2.17
2023-03-24T09:13:16.628Z,2.67
2023-03-24T09:15:47.909Z,2.67
2023-03-24T09:18:17.336Z,2.25
2023-03-24T09:20:46.763Z,2.30
2023-03-24T09:23:15.621Z,2.50
2023-03-24T09:25:45.965Z,2.08
2023-03-24T09:28:16.323Z,2.42
2023-03-24T09:30:45.198Z,2.60
2023-03-24T09:33:13.744Z,2.67
2023-03-24T09:35:42.190Z,2.38
2023-03-24T09:38:12.358Z,2.17
2023-03-24T09:40:43.602Z,2.70
2023-03-24T09:43:24.763Z,2.35
2023-03-24T09:45:55.773Z,2.47
2023-03-24T09:48:35.400Z,2.90
2023-03-24T09:51:06.765Z,2.55
2023-03-24T09:53:41.989Z,2.33
2023-03-24T09:56:14.704Z,2.38
2023-03-24T09:58:46.641Z,2.80
2023-03-24T10:01:17.056Z,2.10
2023-03-24T10:03:46.231Z,2.72
2023-03-24T10:06:21.882Z,2.03
2023-03-24T10:08:56.751Z,2.80
2023-03-24T10:11:29.071Z,2.00
2023-03-24T10:14:11.903Z,2.55
2023-03-24T10:16:51.345Z,2.40
2023-03-24T10:19:29.080Z,2.13
2023-03-24T10:22:05.342Z,2.00
2023-03-24T10:24:40.091Z,1.85
2023-03-24T10:27:18.411Z,2.03
2023-03-24T10:29:51.011Z,1.80
2023-03-24T10:32:22.432Z,1.60
2023-03-24T10:34:57.340Z,2.10
2023-03-24T10:37:25.633Z,1.70
2023-03-24T10:39:54.109Z,1.80
2023-03-24T10:42:27.466Z,1.77
2023-03-24T10:44:57.770Z,2.35
2023-03-24T10:47:28.926Z,2.05
2023-03-24T10:50:00.851Z,1.85
2023-03-24T10:52:42.628Z,1.67
2023-03-24T10:55:16.678Z,2.05
2023-03-24T10:57:46.292Z,1.90
2023-03-24T11:00:26.455Z,1.90
2023-03-24T11:02:58.864Z,1.70
2023-03-24T11:05:31.880Z,1.65
2023-03-24T11:08:13.806Z,2.20
2023-03-24T11:10:42.202Z,1.70
2023-03-24T11:13:19.120Z,2.15
2023-03-24T11:15:57.883Z,1.65
2023-03-24T11:18:26.226Z,1.35
2023-03-24T11:21:00.863Z,1.63
2023-03-24T11:23:31.350Z,1.40
2023-03-24T11:26:10.369Z,1.40
2023-03-24T11:28:41.992Z,1.38
2023-03-24T11:31:18.614Z,1.40
2023-03-24T11:33:53.026Z,1.45
2023-03-24T11:36:56.327Z,1.30
2023-03-24T11:39:26.222Z,1.25
2023-03-24T11:42:17.440Z,1.35
2023-03-24T11:44:50.137Z,0.80
2023-03-24T11:47:26.001Z,1.10
2023-03-24T11:50:05.516Z,0.90
2023-03-24T11:52:39.643Z,1.40
2023-03-24T11:55:17.412Z,1.08
2023-03-24T11:57:53.304Z,0.95
2023-03-24T12:00:29.469Z,1.02
2023-03-24T12:03:31.262Z,1.17
2023-03-24T12:06:12.065Z,1.15
2023-03-24T12:08:49.567Z,1.30
2023-03-24T12:11:28.406Z,1.38
2023-03-24T12:13:59.986Z,1.40
2023-03-24T12:16:49.988Z,1.50
2023-03-24T12:19:35.755Z,1.27
2023-03-24T12:22:17.126Z,1.67
2023-03-24T12:25:09.937Z,0.85
2023-03-24T12:27:48.277Z,1.20
2023-03-24T12:30:25.858Z,1.58
2023-03-24T12:33:08.608Z,1.00
2023-03-24T12:36:03.583Z,1.20
2023-03-24T12:38:43.199Z,1.10
2023-03-24T12:41:31.633Z,1.10
2023-03-24T12:44:14.567Z,1.17
2023-03-24T12:46:50.421Z,1.30
2023-03-24T12:49:39.497Z,1.25
2023-03-24T12:52:22.804Z,1.05
2023-03-24T12:54:54.692Z,1.20
2023-03-24T12:57:27.022Z,1.00
2023-03-24T13:00:02.641Z,1.08
2023-03-24T13:02:34.802Z,1.00
2023-03-24T13:05:06.995Z,0.80
2023-03-24T13:07:39.281Z,1.10
2023-03-24T13:10:15.439Z,0.80
2023-03-24T13:12:49.956Z,0.98
2023-03-24T13:15:23.799Z,1.20
2023-03-24T13:17:54.977Z,1.15
2023-03-24T13:20:29.371Z,1.40
2023-03-24T13:23:01.175Z,1.08
2023-03-24T13:25:37.817Z,1.20
2023-03-24T13:28:11.717Z,1.38
2023-03-24T13:30:42.727Z,1.00
2023-03-24T13:33:16.343Z,1.27
2023-03-24T13:35:58.752Z,1.25
2023-03-24T13:38:37.365Z,1.20
2023-03-24T13:41:07.821Z,1.40
2023-03-24T13:43:36.357Z,1.10
2023-03-24T13:46:07.553Z,1.20
2023-03-24T13:48:38.831Z,1.10
2023-03-24T13:51:17.403Z,1.80
2023-03-24T13:53:53.157Z,1.20
2023-03-24T13:56:29.847Z,1.38
2023-03-24T13:59:23.452Z,1.20
2023-03-24T14:02:45.752Z,1.00
2023-03-24T14:06:02.260Z,1.00
2023-03-24T14:08:56.149Z,1.40
2023-03-24T14:12:16.824Z,1.13
2023-03-24T14:17:44.803Z,1.05
2023-03-24T14:20:25.931Z,1.23
2023-03-24T14:22:54.745Z,1.13
2023-03-24T14:25:27.508Z,0.90
2023-03-24T14:28:07.733Z,1.17
2023-03-24T14:30:38.208Z,1.02
2023-03-24T14:33:27.976Z,0.98
2023-03-24T14:36:04.864Z,0.80
2023-03-24T14:38:37.764Z,0.82
2023-03-24T14:41:15.285Z,1.10
2023-03-24T14:44:00.689Z,0.77
2023-03-24T14:46:39.300Z,0.95
2023-03-24T14:49:18.697Z,0.80
2023-03-24T14:51:53.994Z,0.80
2023-03-24T14:54:30.099Z,0.85
2023-03-24T14:57:00.178Z,0.77
2023-03-24T14:59:40.616Z,1.00
2023-03-24T15:02:21.650Z,1.10
2023-03-24T15:05:22.623Z,0.75
2023-03-24T15:08:11.892Z,1.00
2023-03-24T15:10:45.018Z,1.10
2023-03-24T15:13:31.551Z,1.30
2023-03-24T15:16:01.080Z,1.08
2023-03-24T15:18:29.329Z,1.23
2023-03-24T15:20:58.919Z,1.20
2023-03-24T15:23:29.453Z,1.23
2023-03-24T15:25:58.291Z,1.02
2023-03-24T15:28:28.936Z,0.95
2023-03-24T15:30:59.851Z,0.80
2023-03-24T15:33:30.846Z,1.23
2023-03-24T15:36:02.347Z,1.20
2023-03-24T15:38:32.974Z,1.20
2023-03-24T15:41:04.242Z,1.27
2023-03-24T15:43:32.648Z,1.30
2023-03-24T15:46:11.572Z,1.25
2023-03-24T15:48:40.900Z,1.50
2023-03-24T15:51:12.487Z,1.35
2023-03-24T15:53:44.565Z,0.70
2023-03-24T15:56:27.528Z,1.00
2023-03-24T15:58:58.007Z,1.17
2023-03-24T16:01:31.443Z,0.90
2023-03-24T16:04:02.515Z,1.20
2023-03-24T16:06:35.302Z,1.00
2023-03-24T16:09:10.848Z,0.80
2023-03-24T16:11:42.890Z,0.90
2023-03-24T16:14:22.801Z,1.10
2023-03-24T16:16:55.122Z,1.23
2023-03-24T16:19:23.830Z,0.82
2023-03-24T16:21:54.708Z,1.25
2023-03-24T16:24:23.936Z,0.98
2023-03-24T16:26:52.054Z,1.33
2023-03-24T16:29:22.347Z,1.15
2023-03-24T16:31:52.386Z,1.10
2023-03-24T16:34:22.234Z,1.05
2023-03-24T16:36:52.044Z,1.40
2023-03-24T16:39:23.406Z,1.23
2023-03-24T16:41:52.127Z,1.25
2023-03-24T16:44:20.959Z,1.25
2023-03-24T16:46:52.049Z,1.48
2023-03-24T16:49:21.410Z,1.50
2023-03-24T16:51:50.074Z,1.25
2023-03-24T16:54:18.183Z,1.35
2023-03-24T16:56:47.941Z,1.25
2023-03-24T16:59:16.455Z,1.10
2023-03-24T17:01:46.735Z,0.90
2023-03-24T17:04:17.059Z,1.10
2023-03-24T17:06:49.299Z,1.20
2023-03-24T17:09:18.054Z,1.75
2023-03-24T17:11:50.941Z,1.27
2023-03-24T17:14:19.551Z,1.25
2023-03-24T17:16:49.829Z,1.65
2023-03-24T17:19:20.961Z,1.30
2023-03-24T17:21:53.444Z,1.90
2023-03-24T17:24:24.207Z,1.38
2023-03-24T17:26:53.856Z,2.40
2023-03-24T17:29:22.881Z,1.83
2023-03-24T17:31:51.219Z,2.00
2023-03-24T17:34:22.233Z,2.20
2023-03-24T17:36:51.835Z,1.80
2023-03-24T17:39:21.575Z,1.75
2023-03-24T17:41:49.888Z,1.95
2023-03-24T17:44:19.457Z,1.60
2023-03-24T17:46:47.693Z,1.90
2023-03-24T17:49:15.944Z,1.67
2023-03-24T17:51:44.263Z,1.20
2023-03-24T17:54:13.459Z,2.00
2023-03-24T17:56:41.706Z,2.08
2023-03-24T17:59:09.878Z,1.70
2023-03-24T18:01:44.367Z,1.60
2023-03-24T18:04:21.098Z,1.50
2023-03-24T18:06:54.858Z,1.65
2023-03-24T18:09:31.299Z,1.75
2023-03-24T18:12:06.575Z,1.70
2023-03-24T18:14:40.627Z,1.50
2023-03-24T18:17:15.274Z,1.65
2023-03-24T18:19:50.447Z,1.50
2023-03-24T18:22:26.709Z,1.70
2023-03-24T18:25:03.456Z,1.77
2023-03-24T18:27:41.488Z,1.90
2023-03-24T18:30:18.291Z,2.03
2023-03-24T18:32:53.310Z,1.80
2023-03-24T18:35:26.791Z,1.75
2023-03-24T18:38:04.532Z,2.00
2023-03-24T18:40:39.639Z,2.00
2023-03-24T18:43:16.510Z,2.00
2023-03-24T18:45:52.138Z,1.73
2023-03-24T18:48:29.678Z,2.63
2023-03-24T18:51:03.546Z,2.15
2023-03-24T18:53:39.555Z,2.10
2023-03-24T18:56:17.320Z,1.80
2023-03-24T18:58:51.704Z,2.08
2023-03-24T19:01:25.219Z,2.40
2023-03-24T19:04:02.331Z,3.45
2023-03-24T19:06:34.391Z,3.45
2023-03-24T19:09:05.330Z,2.60
2023-03-24T19:11:33.426Z,2.30
2023-03-24T19:14:01.583Z,2.28
2023-03-24T19:16:30.320Z,1.95
2023-03-24T19:19:00.264Z,2.50
2023-03-24T19:21:28.728Z,2.10
2023-03-24T19:23:57.055Z,1.92
2023-03-24T19:26:26.135Z,2.65
2023-03-24T19:28:54.591Z,2.33
2023-03-24T19:31:23.039Z,2.28
2023-03-24T19:33:52.210Z,2.50
2023-03-24T19:36:22.100Z,2.38
2023-03-24T19:38:50.916Z,2.60
2023-03-24T19:41:20.332Z,2.45
2023-03-24T19:43:50.264Z,2.22
2023-03-24T19:46:21.300Z,2.42
2023-03-24T19:48:49.680Z,2.60
2023-03-24T19:51:18.591Z,2.70
2023-03-24T19:53:48.208Z,2.67
2023-03-24T19:56:18.237Z,2.38
2023-03-24T19:58:46.324Z,2.78
2023-03-24T20:01:14.654Z,2.17
2023-03-24T20:03:43.215Z,2.10
2023-03-24T20:06:11.550Z,2.10
2023-03-24T20:08:40.359Z,1.85
2023-03-24T20:11:12.253Z,2.67
2023-03-24T20:13:40.349Z,2.33
2023-03-24T20:16:08.679Z,2.30
2023-03-24T20:18:39.272Z,2.53
2023-03-24T20:21:08.658Z,2.10
2023-03-24T20:23:36.900Z,2.47
2023-03-24T20:26:05.344Z,2.25
2023-03-24T20:28:34.926Z,2.33
2023-03-24T20:31:04.741Z,2.88
2023-03-24T20:33:33.088Z,2.17
2023-03-24T20:36:01.700Z,2.47
2023-03-24T20:38:30.023Z,2.70
2023-03-24T20:40:59.575Z,2.30
2023-03-24T20:43:27.885Z,2.22
2023-03-24T20:45:58.349Z,2.75
2023-03-24T20:48:26.613Z,1.85
2023-03-24T20:50:54.930Z,1.95
2023-03-24T20:53:25.040Z,2.65
2023-03-24T20:56:00.895Z,1.90
2023-03-24T20:58:30.692Z,2.05
2023-03-24T21:01:00.714Z,1.95
2023-03-24T21:03:28.809Z,1.75
2023-03-24T21:05:57.457Z,2.30
2023-03-24T21:08:25.759Z,2.47
2023-03-24T21:10:56.929Z,2.95
2023-03-24T21:15:56.805Z,1.90
2023-03-24T21:18:26.497Z,1.90
2023-03-24T21:20:56.001Z,2.03
2023-03-24T21:23:24.865Z,1.80
2023-03-24T21:25:53.794Z,2.40
2023-03-24T21:28:22.043Z,1.65
2023-03-24T21:30:50.147Z,2.15
2023-03-24T21:33:18.427Z,1.95
2023-03-24T21:35:48.286Z,1.73
2023-03-24T21:38:18.828Z,2.00
2023-03-24T21:40:47.107Z,1.60
2023-03-24T21:43:15.271Z,2.30
2023-03-24T21:45:46.493Z,2.83
2023-03-24T21:48:16.191Z,1.70
2023-03-24T21:50:46.939Z,2.05
2023-03-24T21:53:16.021Z,1.80
2023-03-24T21:55:51.002Z,1.55
2023-03-24T21:58:19.924Z,1.98
2023-03-24T22:00:49.332Z,2.05
2023-03-24T22:03:17.845Z,1.80
2023-03-24T22:05:47.342Z,1.63
2023-03-24T22:08:22.863Z,1.90
2023-03-24T22:10:54.354Z,2.35
2023-03-24T22:13:22.410Z,2.72
2023-03-24T22:15:54.927Z,2.05
2023-03-24T22:18:23.386Z,1.98
2023-03-24T22:20:57.336Z,1.83
2023-03-24T22:23:25.492Z,1.73
2023-03-24T22:25:53.937Z,1.60
2023-03-24T22:28:22.316Z,1.88
2023-03-24T22:30:50.443Z,1.80
2023-03-24T22:33:18.855Z,2.33
2023-03-24T22:35:47.090Z,1.75
2023-03-24T22:38:17.358Z,1.90
2023-03-24T22:40:45.411Z,1.65
2023-03-24T22:43:13.676Z,1.83
2023-03-24T22:45:41.731Z,1.45
2023-03-24T22:48:09.823Z,2.00
2023-03-24T22:50:41.218Z,1.80
2023-03-24T22:53:09.640Z,2.10
2023-03-24T22:55:41.937Z,1.50
2023-03-24T22:58:10.840Z,1.55
2023-03-24T23:00:38.960Z,1.20
2023-03-24T23:03:08.229Z,1.00
2023-03-24T23:05:41.046Z,0.90
2023-03-24T23:08:09.676Z,1.13
2023-03-24T23:10:40.660Z,0.82
2023-03-24T23:13:10.615Z,0.70
2023-03-24T23:15:42.906Z,0.60
2023-03-24T23:18:11.846Z,0.63
2023-03-24T23:20:40.883Z,0.63
2023-03-24T23:23:09.227Z,0.60
2023-03-24T23:25:42.621Z,0.70
2023-03-24T23:28:10.862Z,0.70
2023-03-24T23:30:39.703Z,0.68
2023-03-24T23:33:07.811Z,1.55
2023-03-24T23:35:37.592Z,0.80
2023-03-24T23:38:06.742Z,0.80
2023-03-24T23:40:34.928Z,1.00
2023-03-24T23:43:04.610Z,0.95
2023-03-24T23:45:32.652Z,1.17
2023-03-24T23:48:00.833Z,0.70
2023-03-24T23:50:29.399Z,0.68
2023-03-24T23:52:57.724Z,0.70
2023-03-24T23:55:26.658Z,0.65
2023-03-24T23:57:55.824Z,0.95
